sensor_id;sensor_type;location;lat;lon;timestamp;P1;durP1;ratioP1;P2;durP2;ratioP2
72427;SDS011;60419;48.880;18.036;2023-12-04T00:00:04;20.73;;;10.55;;
72427;SDS011;60419;48.880;18.036;2023-12-04T00:02:51;20.17;;;11.00;;
72427;SDS011;60419;48.880;18.036;2023-12-04T00:05:37;19.60;;;10.90;;
72427;SDS011;60419;48.880;18.036;2023-12-04T00:08:22;19.48;;;10.40;;
72427;SDS011;60419;48.880;18.036;2023-12-04T00:11:08;22.55;;;11.88;;
72427;SDS011;60419;48.880;18.036;2023-12-04T00:13:53;19.60;;;11.10;;
72427;SDS011;60419;48.880;18.036;2023-12-04T00:16:38;21.40;;;11.60;;
72427;SDS011;60419;48.880;18.036;2023-12-04T00:19:24;21.00;;;11.48;;
72427;SDS011;60419;48.880;18.036;2023-12-04T00:22:10;20.92;;;11.00;;
72427;SDS011;60419;48.880;18.036;2023-12-04T00:24:56;19.98;;;12.40;;
72427;SDS011;60419;48.880;18.036;2023-12-04T00:27:41;22.85;;;11.98;;
72427;SDS011;60419;48.880;18.036;2023-12-04T00:30:26;20.98;;;11.55;;
72427;SDS011;60419;48.880;18.036;2023-12-04T00:33:12;20.63;;;12.07;;
72427;SDS011;60419;48.880;18.036;2023-12-04T00:35:57;22.20;;;12.48;;
72427;SDS011;60419;48.880;18.036;2023-12-04T00:38:42;23.65;;;12.13;;
72427;SDS011;60419;48.880;18.036;2023-12-04T00:41:28;21.42;;;12.27;;
72427;SDS011;60419;48.880;18.036;2023-12-04T00:44:13;24.08;;;13.82;;
72427;SDS011;60419;48.880;18.036;2023-12-04T00:46:59;22.75;;;12.70;;
72427;SDS011;60419;48.880;18.036;2023-12-04T00:49:44;23.98;;;13.63;;
72427;SDS011;60419;48.880;18.036;2023-12-04T00:52:29;23.02;;;12.25;;
72427;SDS011;60419;48.880;18.036;2023-12-04T00:55:15;22.75;;;13.18;;
72427;SDS011;60419;48.880;18.036;2023-12-04T00:58:00;22.42;;;12.25;;
72427;SDS011;60419;48.880;18.036;2023-12-04T01:00:46;20.73;;;11.02;;
72427;SDS011;60419;48.880;18.036;2023-12-04T01:03:33;23.95;;;12.20;;
72427;SDS011;60419;48.880;18.036;2023-12-04T01:06:22;21.67;;;11.70;;
72427;SDS011;60419;48.880;18.036;2023-12-04T01:09:08;20.98;;;11.70;;
72427;SDS011;60419;48.880;18.036;2023-12-04T01:11:54;22.48;;;12.52;;
72427;SDS011;60419;48.880;18.036;2023-12-04T01:14:39;19.92;;;11.20;;
72427;SDS011;60419;48.880;18.036;2023-12-04T01:17:25;19.13;;;11.20;;
72427;SDS011;60419;48.880;18.036;2023-12-04T01:20:10;20.98;;;10.88;;
72427;SDS011;60419;48.880;18.036;2023-12-04T01:22:56;19.10;;;10.70;;
72427;SDS011;60419;48.880;18.036;2023-12-04T01:25:41;22.85;;;12.63;;
72427;SDS011;60419;48.880;18.036;2023-12-04T01:28:26;22.05;;;11.57;;
72427;SDS011;60419;48.880;18.036;2023-12-04T01:31:12;20.50;;;11.88;;
72427;SDS011;60419;48.880;18.036;2023-12-04T01:33:57;20.88;;;11.55;;
72427;SDS011;60419;48.880;18.036;2023-12-04T01:36:42;17.73;;;10.63;;
72427;SDS011;60419;48.880;18.036;2023-12-04T01:39:28;21.50;;;12.00;;
72427;SDS011;60419;48.880;18.036;2023-12-04T01:42:13;18.65;;;10.90;;
72427;SDS011;60419;48.880;18.036;2023-12-04T01:44:58;19.33;;;10.38;;
72427;SDS011;60419;48.880;18.036;2023-12-04T01:47:44;19.58;;;11.02;;
72427;SDS011;60419;48.880;18.036;2023-12-04T01:50:30;18.73;;;11.13;;
72427;SDS011;60419;48.880;18.036;2023-12-04T01:53:16;18.58;;;10.45;;
72427;SDS011;60419;48.880;18.036;2023-12-04T01:56:02;20.17;;;12.00;;
72427;SDS011;60419;48.880;18.036;2023-12-04T01:58:47;19.73;;;11.05;;
72427;SDS011;60419;48.880;18.036;2023-12-04T02:01:33;18.65;;;10.48;;
72427;SDS011;60419;48.880;18.036;2023-12-04T02:04:19;19.63;;;10.57;;
72427;SDS011;60419;48.880;18.036;2023-12-04T02:07:04;20.52;;;11.23;;
72427;SDS011;60419;48.880;18.036;2023-12-04T02:09:50;23.85;;;12.80;;
72427;SDS011;60419;48.880;18.036;2023-12-04T02:12:35;22.23;;;12.05;;
72427;SDS011;60419;48.880;18.036;2023-12-04T02:15:21;21.70;;;11.95;;
72427;SDS011;60419;48.880;18.036;2023-12-04T02:18:06;19.50;;;11.75;;
72427;SDS011;60419;48.880;18.036;2023-12-04T02:20:52;21.23;;;12.18;;
72427;SDS011;60419;48.880;18.036;2023-12-04T02:23:38;21.20;;;12.00;;
72427;SDS011;60419;48.880;18.036;2023-12-04T02:26:24;19.90;;;11.48;;
72427;SDS011;60419;48.880;18.036;2023-12-04T02:29:19;23.20;;;12.10;;
72427;SDS011;60419;48.880;18.036;2023-12-04T02:32:09;21.33;;;11.63;;
72427;SDS011;60419;48.880;18.036;2023-12-04T02:34:59;22.55;;;11.82;;
72427;SDS011;60419;48.880;18.036;2023-12-04T02:37:49;23.00;;;11.65;;
72427;SDS011;60419;48.880;18.036;2023-12-04T02:40:35;21.60;;;12.40;;
72427;SDS011;60419;48.880;18.036;2023-12-04T02:43:20;22.92;;;11.85;;
72427;SDS011;60419;48.880;18.036;2023-12-04T02:46:06;20.00;;;11.38;;
72427;SDS011;60419;48.880;18.036;2023-12-04T02:48:52;25.15;;;12.50;;
72427;SDS011;60419;48.880;18.036;2023-12-04T02:51:39;22.85;;;12.57;;
72427;SDS011;60419;48.880;18.036;2023-12-04T02:54:26;22.88;;;12.60;;
72427;SDS011;60419;48.880;18.036;2023-12-04T02:57:11;22.60;;;12.75;;
72427;SDS011;60419;48.880;18.036;2023-12-04T02:59:57;21.48;;;11.95;;
72427;SDS011;60419;48.880;18.036;2023-12-04T03:02:42;22.30;;;12.20;;
72427;SDS011;60419;48.880;18.036;2023-12-04T03:05:27;23.58;;;13.38;;
72427;SDS011;60419;48.880;18.036;2023-12-04T03:08:13;23.05;;;12.10;;
72427;SDS011;60419;48.880;18.036;2023-12-04T03:10:58;24.23;;;12.98;;
72427;SDS011;60419;48.880;18.036;2023-12-04T03:13:43;23.20;;;12.55;;
72427;SDS011;60419;48.880;18.036;2023-12-04T03:16:29;24.05;;;12.27;;
72427;SDS011;60419;48.880;18.036;2023-12-04T03:19:14;23.73;;;13.00;;
72427;SDS011;60419;48.880;18.036;2023-12-04T03:22:00;22.02;;;12.13;;
72427;SDS011;60419;48.880;18.036;2023-12-04T03:24:46;23.10;;;13.45;;
72427;SDS011;60419;48.880;18.036;2023-12-04T03:27:31;21.35;;;12.65;;
72427;SDS011;60419;48.880;18.036;2023-12-04T03:30:17;23.55;;;13.18;;
72427;SDS011;60419;48.880;18.036;2023-12-04T03:33:02;21.58;;;12.45;;
72427;SDS011;60419;48.880;18.036;2023-12-04T03:35:47;23.90;;;12.77;;
72427;SDS011;60419;48.880;18.036;2023-12-04T03:38:33;24.23;;;12.75;;
72427;SDS011;60419;48.880;18.036;2023-12-04T03:41:18;22.83;;;13.20;;
72427;SDS011;60419;48.880;18.036;2023-12-04T03:44:04;25.73;;;14.02;;
72427;SDS011;60419;48.880;18.036;2023-12-04T03:46:49;24.20;;;14.18;;
72427;SDS011;60419;48.880;18.036;2023-12-04T03:49:34;20.77;;;12.63;;
72427;SDS011;60419;48.880;18.036;2023-12-04T03:52:20;25.20;;;13.75;;
72427;SDS011;60419;48.880;18.036;2023-12-04T03:55:05;27.13;;;13.93;;
72427;SDS011;60419;48.880;18.036;2023-12-04T03:57:51;24.98;;;14.02;;
72427;SDS011;60419;48.880;18.036;2023-12-04T04:00:37;27.00;;;14.02;;
72427;SDS011;60419;48.880;18.036;2023-12-04T04:03:26;26.00;;;13.77;;
72427;SDS011;60419;48.880;18.036;2023-12-04T04:06:11;28.52;;;14.23;;
72427;SDS011;60419;48.880;18.036;2023-12-04T04:08:56;26.85;;;13.98;;
72427;SDS011;60419;48.880;18.036;2023-12-04T04:11:42;23.88;;;12.85;;
72427;SDS011;60419;48.880;18.036;2023-12-04T04:14:27;26.40;;;13.52;;
72427;SDS011;60419;48.880;18.036;2023-12-04T04:17:13;27.10;;;15.00;;
72427;SDS011;60419;48.880;18.036;2023-12-04T04:19:58;21.80;;;12.32;;
72427;SDS011;60419;48.880;18.036;2023-12-04T04:22:44;24.15;;;13.13;;
72427;SDS011;60419;48.880;18.036;2023-12-04T04:25:30;24.80;;;13.65;;
72427;SDS011;60419;48.880;18.036;2023-12-04T04:28:15;22.55;;;13.10;;
72427;SDS011;60419;48.880;18.036;2023-12-04T04:31:01;23.17;;;13.88;;
72427;SDS011;60419;48.880;18.036;2023-12-04T04:33:46;23.33;;;13.43;;
72427;SDS011;60419;48.880;18.036;2023-12-04T04:36:31;26.00;;;14.10;;
72427;SDS011;60419;48.880;18.036;2023-12-04T04:39:17;24.92;;;13.85;;
72427;SDS011;60419;48.880;18.036;2023-12-04T04:42:02;23.33;;;12.93;;
72427;SDS011;60419;48.880;18.036;2023-12-04T04:44:48;24.52;;;13.32;;
72427;SDS011;60419;48.880;18.036;2023-12-04T04:47:33;28.67;;;15.35;;
72427;SDS011;60419;48.880;18.036;2023-12-04T04:50:19;28.02;;;15.63;;
72427;SDS011;60419;48.880;18.036;2023-12-04T04:53:04;23.98;;;13.95;;
72427;SDS011;60419;48.880;18.036;2023-12-04T04:55:49;26.70;;;14.75;;
72427;SDS011;60419;48.880;18.036;2023-12-04T04:58:35;26.75;;;14.20;;
72427;SDS011;60419;48.880;18.036;2023-12-04T05:01:20;27.02;;;14.88;;
72427;SDS011;60419;48.880;18.036;2023-12-04T05:04:06;25.17;;;14.02;;
72427;SDS011;60419;48.880;18.036;2023-12-04T05:06:51;25.13;;;13.82;;
72427;SDS011;60419;48.880;18.036;2023-12-04T05:09:37;24.17;;;13.23;;
72427;SDS011;60419;48.880;18.036;2023-12-04T05:12:22;23.52;;;13.73;;
72427;SDS011;60419;48.880;18.036;2023-12-04T05:15:07;26.48;;;14.45;;
72427;SDS011;60419;48.880;18.036;2023-12-04T05:17:53;23.60;;;13.40;;
72427;SDS011;60419;48.880;18.036;2023-12-04T05:20:38;25.83;;;13.45;;
72427;SDS011;60419;48.880;18.036;2023-12-04T05:23:24;23.45;;;13.60;;
72427;SDS011;60419;48.880;18.036;2023-12-04T05:26:09;21.98;;;13.07;;
72427;SDS011;60419;48.880;18.036;2023-12-04T05:28:54;25.67;;;14.30;;
72427;SDS011;60419;48.880;18.036;2023-12-04T05:31:40;25.67;;;14.52;;
72427;SDS011;60419;48.880;18.036;2023-12-04T05:34:25;26.48;;;14.00;;
72427;SDS011;60419;48.880;18.036;2023-12-04T05:37:11;27.27;;;14.68;;
72427;SDS011;60419;48.880;18.036;2023-12-04T05:39:56;24.67;;;13.55;;
72427;SDS011;60419;48.880;18.036;2023-12-04T05:42:41;27.52;;;15.27;;
72427;SDS011;60419;48.880;18.036;2023-12-04T05:45:27;24.02;;;13.80;;
72427;SDS011;60419;48.880;18.036;2023-12-04T05:48:12;23.30;;;14.52;;
72427;SDS011;60419;48.880;18.036;2023-12-04T05:50:58;25.38;;;14.35;;
72427;SDS011;60419;48.880;18.036;2023-12-04T05:53:43;24.02;;;12.73;;
72427;SDS011;60419;48.880;18.036;2023-12-04T05:56:28;22.65;;;13.48;;
72427;SDS011;60419;48.880;18.036;2023-12-04T05:59:14;25.45;;;13.05;;
72427;SDS011;60419;48.880;18.036;2023-12-04T06:02:00;25.50;;;14.07;;
72427;SDS011;60419;48.880;18.036;2023-12-04T06:04:46;25.38;;;14.43;;
72427;SDS011;60419;48.880;18.036;2023-12-04T06:07:31;28.75;;;15.25;;
72427;SDS011;60419;48.880;18.036;2023-12-04T06:10:17;24.98;;;13.70;;
72427;SDS011;60419;48.880;18.036;2023-12-04T06:13:02;24.77;;;14.18;;
72427;SDS011;60419;48.880;18.036;2023-12-04T06:15:48;26.65;;;14.45;;
72427;SDS011;60419;48.880;18.036;2023-12-04T06:18:33;23.60;;;13.60;;
72427;SDS011;60419;48.880;18.036;2023-12-04T06:21:18;23.98;;;12.73;;
72427;SDS011;60419;48.880;18.036;2023-12-04T06:24:04;23.65;;;13.32;;
72427;SDS011;60419;48.880;18.036;2023-12-04T06:26:50;26.40;;;14.25;;
72427;SDS011;60419;48.880;18.036;2023-12-04T06:42:33;52.67;;;26.30;;
72427;SDS011;60419;48.880;18.036;2023-12-04T06:45:20;38.78;;;19.63;;
72427;SDS011;60419;48.880;18.036;2023-12-04T06:48:06;46.70;;;21.40;;
72427;SDS011;60419;48.880;18.036;2023-12-04T06:50:53;47.13;;;21.88;;
72427;SDS011;60419;48.880;18.036;2023-12-04T06:53:38;30.30;;;15.63;;
72427;SDS011;60419;48.880;18.036;2023-12-04T06:56:24;105.03;;;35.15;;
72427;SDS011;60419;48.880;18.036;2023-12-04T06:59:09;114.40;;;41.22;;
72427;SDS011;60419;48.880;18.036;2023-12-04T07:01:55;38.38;;;16.90;;
72427;SDS011;60419;48.880;18.036;2023-12-04T07:04:40;58.67;;;29.45;;
72427;SDS011;60419;48.880;18.036;2023-12-04T07:07:25;71.20;;;33.65;;
72427;SDS011;60419;48.880;18.036;2023-12-04T07:10:11;31.55;;;16.90;;
72427;SDS011;60419;48.880;18.036;2023-12-04T07:12:59;25.60;;;14.73;;
72427;SDS011;60419;48.880;18.036;2023-12-04T07:15:45;25.02;;;14.10;;
72427;SDS011;60419;48.880;18.036;2023-12-04T07:18:30;24.83;;;15.27;;
72427;SDS011;60419;48.880;18.036;2023-12-04T07:21:15;30.75;;;16.10;;
72427;SDS011;60419;48.880;18.036;2023-12-04T07:24:01;32.70;;;15.65;;
72427;SDS011;60419;48.880;18.036;2023-12-04T07:26:46;33.28;;;16.15;;
72427;SDS011;60419;48.880;18.036;2023-12-04T12:09:59;17.80;;;9.45;;
72427;SDS011;60419;48.880;18.036;2023-12-04T12:12:45;17.38;;;9.05;;
72427;SDS011;60419;48.880;18.036;2023-12-04T12:15:34;15.40;;;8.57;;
72427;SDS011;60419;48.880;18.036;2023-12-04T12:18:21;15.90;;;9.07;;
72427;SDS011;60419;48.880;18.036;2023-12-04T12:21:08;15.68;;;9.13;;
72427;SDS011;60419;48.880;18.036;2023-12-04T12:23:54;14.88;;;8.52;;
72427;SDS011;60419;48.880;18.036;2023-12-04T12:26:39;14.43;;;9.07;;
72427;SDS011;60419;48.880;18.036;2023-12-04T12:29:25;15.18;;;9.45;;
72427;SDS011;60419;48.880;18.036;2023-12-04T12:32:12;17.02;;;8.95;;
72427;SDS011;60419;48.880;18.036;2023-12-04T12:34:58;17.25;;;9.77;;
72427;SDS011;60419;48.880;18.036;2023-12-04T12:37:43;15.50;;;8.57;;
72427;SDS011;60419;48.880;18.036;2023-12-04T12:40:28;16.15;;;10.15;;
72427;SDS011;60419;48.880;18.036;2023-12-04T12:43:14;13.93;;;8.73;;
72427;SDS011;60419;48.880;18.036;2023-12-04T12:46:00;15.02;;;8.95;;
72427;SDS011;60419;48.880;18.036;2023-12-04T12:48:46;14.25;;;8.85;;
72427;SDS011;60419;48.880;18.036;2023-12-04T12:51:32;13.73;;;8.45;;
72427;SDS011;60419;48.880;18.036;2023-12-04T12:54:17;13.55;;;8.35;;
72427;SDS011;60419;48.880;18.036;2023-12-04T12:57:09;14.57;;;8.63;;
72427;SDS011;60419;48.880;18.036;2023-12-04T12:59:56;16.77;;;9.07;;
72427;SDS011;60419;48.880;18.036;2023-12-04T13:02:42;14.32;;;8.68;;
72427;SDS011;60419;48.880;18.036;2023-12-04T13:05:29;14.73;;;9.20;;
72427;SDS011;60419;48.880;18.036;2023-12-04T13:08:15;14.07;;;8.43;;
72427;SDS011;60419;48.880;18.036;2023-12-04T13:11:00;13.43;;;8.48;;
72427;SDS011;60419;48.880;18.036;2023-12-04T13:13:45;14.25;;;8.68;;
72427;SDS011;60419;48.880;18.036;2023-12-04T13:16:31;15.50;;;8.60;;
72427;SDS011;60419;48.880;18.036;2023-12-04T13:19:16;14.18;;;8.52;;
72427;SDS011;60419;48.880;18.036;2023-12-04T13:22:02;14.25;;;8.90;;
72427;SDS011;60419;48.880;18.036;2023-12-04T13:24:49;14.77;;;9.80;;
72427;SDS011;60419;48.880;18.036;2023-12-04T13:27:34;16.38;;;9.15;;
72427;SDS011;60419;48.880;18.036;2023-12-04T13:30:19;15.27;;;8.95;;
72427;SDS011;60419;48.880;18.036;2023-12-04T13:33:05;16.75;;;8.57;;
72427;SDS011;60419;48.880;18.036;2023-12-04T13:35:50;15.18;;;9.25;;
72427;SDS011;60419;48.880;18.036;2023-12-04T13:38:36;13.35;;;9.00;;
72427;SDS011;60419;48.880;18.036;2023-12-04T13:41:21;13.32;;;8.30;;
72427;SDS011;60419;48.880;18.036;2023-12-04T13:44:25;13.77;;;8.52;;
72427;SDS011;60419;48.880;18.036;2023-12-04T13:47:11;13.70;;;8.85;;
72427;SDS011;60419;48.880;18.036;2023-12-04T13:49:57;15.75;;;9.27;;
72427;SDS011;60419;48.880;18.036;2023-12-04T13:52:43;16.75;;;9.70;;
72427;SDS011;60419;48.880;18.036;2023-12-04T13:55:28;17.52;;;9.73;;
72427;SDS011;60419;48.880;18.036;2023-12-04T13:58:37;15.85;;;9.48;;
72427;SDS011;60419;48.880;18.036;2023-12-04T14:01:24;17.85;;;10.48;;
72427;SDS011;60419;48.880;18.036;2023-12-04T14:04:14;18.30;;;9.35;;
72427;SDS011;60419;48.880;18.036;2023-12-04T14:06:59;16.90;;;10.00;;
72427;SDS011;60419;48.880;18.036;2023-12-04T14:09:44;18.00;;;10.00;;
72427;SDS011;60419;48.880;18.036;2023-12-04T14:12:31;17.52;;;9.77;;
72427;SDS011;60419;48.880;18.036;2023-12-04T14:15:17;16.52;;;9.48;;
72427;SDS011;60419;48.880;18.036;2023-12-04T14:18:02;17.23;;;9.02;;
72427;SDS011;60419;48.880;18.036;2023-12-04T14:20:48;15.13;;;9.18;;
72427;SDS011;60419;48.880;18.036;2023-12-04T14:23:34;15.05;;;8.50;;
72427;SDS011;60419;48.880;18.036;2023-12-04T14:26:19;12.30;;;7.72;;
72427;SDS011;60419;48.880;18.036;2023-12-04T14:29:05;14.48;;;8.10;;
72427;SDS011;60419;48.880;18.036;2023-12-04T14:31:52;14.95;;;8.55;;
72427;SDS011;60419;48.880;18.036;2023-12-04T14:34:38;14.50;;;8.00;;
72427;SDS011;60419;48.880;18.036;2023-12-04T14:37:23;13.70;;;7.88;;
72427;SDS011;60419;48.880;18.036;2023-12-04T14:40:09;14.77;;;8.57;;
72427;SDS011;60419;48.880;18.036;2023-12-04T14:42:57;14.35;;;8.20;;
72427;SDS011;60419;48.880;18.036;2023-12-04T14:45:42;15.13;;;8.10;;
72427;SDS011;60419;48.880;18.036;2023-12-04T14:48:27;15.23;;;9.05;;
72427;SDS011;60419;48.880;18.036;2023-12-04T14:51:13;14.05;;;8.80;;
72427;SDS011;60419;48.880;18.036;2023-12-04T14:53:58;17.92;;;10.07;;
72427;SDS011;60419;48.880;18.036;2023-12-04T14:57:05;17.52;;;10.25;;
72427;SDS011;60419;48.880;18.036;2023-12-04T15:00:00;16.10;;;9.43;;
72427;SDS011;60419;48.880;18.036;2023-12-04T15:03:03;16.42;;;9.20;;
72427;SDS011;60419;48.880;18.036;2023-12-04T15:06:07;16.13;;;9.52;;
72427;SDS011;60419;48.880;18.036;2023-12-04T15:08:53;13.55;;;8.93;;
72427;SDS011;60419;48.880;18.036;2023-12-04T15:11:57;15.30;;;8.98;;
72427;SDS011;60419;48.880;18.036;2023-12-04T15:14:48;17.38;;;9.40;;
72427;SDS011;60419;48.880;18.036;2023-12-04T15:17:41;15.85;;;9.30;;
72427;SDS011;60419;48.880;18.036;2023-12-04T15:20:58;15.65;;;9.35;;
72427;SDS011;60419;48.880;18.036;2023-12-04T15:23:43;16.30;;;9.60;;
72427;SDS011;60419;48.880;18.036;2023-12-04T15:26:29;15.50;;;8.75;;
72427;SDS011;60419;48.880;18.036;2023-12-04T15:29:15;15.52;;;8.85;;
72427;SDS011;60419;48.880;18.036;2023-12-04T15:32:04;14.43;;;8.95;;
72427;SDS011;60419;48.880;18.036;2023-12-04T15:34:50;13.80;;;8.30;;
72427;SDS011;60419;48.880;18.036;2023-12-04T15:37:35;12.50;;;7.60;;
72427;SDS011;60419;48.880;18.036;2023-12-04T15:40:20;14.65;;;7.90;;
72427;SDS011;60419;48.880;18.036;2023-12-04T15:43:06;13.20;;;7.57;;
72427;SDS011;60419;48.880;18.036;2023-12-04T15:45:51;11.50;;;7.20;;
72427;SDS011;60419;48.880;18.036;2023-12-04T15:48:37;13.13;;;7.63;;
72427;SDS011;60419;48.880;18.036;2023-12-04T15:51:23;13.88;;;7.85;;
72427;SDS011;60419;48.880;18.036;2023-12-04T15:54:09;11.63;;;7.45;;
72427;SDS011;60419;48.880;18.036;2023-12-04T15:56:54;11.93;;;7.55;;
72427;SDS011;60419;48.880;18.036;2023-12-04T15:59:39;11.07;;;6.43;;
72427;SDS011;60419;48.880;18.036;2023-12-04T16:02:25;11.35;;;6.93;;
72427;SDS011;60419;48.880;18.036;2023-12-04T16:05:10;11.98;;;7.22;;
72427;SDS011;60419;48.880;18.036;2023-12-04T16:07:56;12.52;;;7.43;;
72427;SDS011;60419;48.880;18.036;2023-12-04T16:10:42;13.57;;;7.82;;
72427;SDS011;60419;48.880;18.036;2023-12-04T16:13:27;13.77;;;8.30;;
72427;SDS011;60419;48.880;18.036;2023-12-04T16:16:13;13.13;;;8.10;;
72427;SDS011;60419;48.880;18.036;2023-12-04T16:18:58;15.40;;;8.30;;
72427;SDS011;60419;48.880;18.036;2023-12-04T16:21:43;15.15;;;8.70;;
72427;SDS011;60419;48.880;18.036;2023-12-04T16:24:30;17.23;;;7.68;;
72427;SDS011;60419;48.880;18.036;2023-12-04T16:27:15;14.75;;;7.65;;
72427;SDS011;60419;48.880;18.036;2023-12-04T16:30:01;13.20;;;7.97;;
72427;SDS011;60419;48.880;18.036;2023-12-04T16:32:47;11.63;;;6.88;;
72427;SDS011;60419;48.880;18.036;2023-12-04T16:35:32;12.75;;;6.97;;
72427;SDS011;60419;48.880;18.036;2023-12-04T16:38:18;13.57;;;6.88;;
72427;SDS011;60419;48.880;18.036;2023-12-04T16:41:04;13.15;;;7.70;;
72427;SDS011;60419;48.880;18.036;2023-12-04T16:43:49;13.98;;;8.00;;
72427;SDS011;60419;48.880;18.036;2023-12-04T16:46:35;14.52;;;7.85;;
72427;SDS011;60419;48.880;18.036;2023-12-04T16:49:23;11.20;;;6.63;;
72427;SDS011;60419;48.880;18.036;2023-12-04T16:52:08;12.27;;;7.45;;
72427;SDS011;60419;48.880;18.036;2023-12-04T16:54:59;12.80;;;6.97;;
72427;SDS011;60419;48.880;18.036;2023-12-04T16:57:44;12.63;;;7.18;;
72427;SDS011;60419;48.880;18.036;2023-12-04T17:00:30;11.23;;;6.90;;
72427;SDS011;60419;48.880;18.036;2023-12-04T17:03:15;11.02;;;6.30;;
72427;SDS011;60419;48.880;18.036;2023-12-04T17:06:01;11.77;;;7.35;;
72427;SDS011;60419;48.880;18.036;2023-12-04T17:08:46;12.32;;;8.10;;
72427;SDS011;60419;48.880;18.036;2023-12-04T17:11:32;14.60;;;7.00;;
72427;SDS011;60419;48.880;18.036;2023-12-04T17:14:18;14.00;;;7.95;;
72427;SDS011;60419;48.880;18.036;2023-12-04T17:17:03;11.35;;;6.68;;
72427;SDS011;60419;48.880;18.036;2023-12-04T17:19:49;13.77;;;7.35;;
72427;SDS011;60419;48.880;18.036;2023-12-04T17:22:34;12.68;;;7.15;;
72427;SDS011;60419;48.880;18.036;2023-12-04T17:25:20;12.70;;;7.38;;
72427;SDS011;60419;48.880;18.036;2023-12-04T17:28:05;10.80;;;6.53;;
72427;SDS011;60419;48.880;18.036;2023-12-04T17:30:51;12.98;;;7.38;;
72427;SDS011;60419;48.880;18.036;2023-12-04T17:33:36;13.57;;;7.85;;
72427;SDS011;60419;48.880;18.036;2023-12-04T17:36:23;12.95;;;7.03;;
72427;SDS011;60419;48.880;18.036;2023-12-04T17:39:08;14.60;;;8.32;;
72427;SDS011;60419;48.880;18.036;2023-12-04T17:41:53;12.20;;;7.43;;
72427;SDS011;60419;48.880;18.036;2023-12-04T17:44:39;11.40;;;7.22;;
72427;SDS011;60419;48.880;18.036;2023-12-04T17:47:24;12.75;;;7.97;;
72427;SDS011;60419;48.880;18.036;2023-12-04T17:50:10;13.82;;;7.28;;
72427;SDS011;60419;48.880;18.036;2023-12-04T17:52:55;12.75;;;7.03;;
72427;SDS011;60419;48.880;18.036;2023-12-04T17:55:40;12.35;;;7.10;;
72427;SDS011;60419;48.880;18.036;2023-12-04T17:58:26;14.15;;;6.90;;
72427;SDS011;60419;48.880;18.036;2023-12-04T18:01:12;13.13;;;6.80;;
72427;SDS011;60419;48.880;18.036;2023-12-04T18:03:57;13.45;;;7.55;;
72427;SDS011;60419;48.880;18.036;2023-12-04T18:06:42;14.90;;;8.35;;
72427;SDS011;60419;48.880;18.036;2023-12-04T18:09:28;13.90;;;7.30;;
72427;SDS011;60419;48.880;18.036;2023-12-04T18:12:14;12.68;;;7.68;;
72427;SDS011;60419;48.880;18.036;2023-12-04T18:14:59;12.15;;;7.60;;
72427;SDS011;60419;48.880;18.036;2023-12-04T18:17:46;14.07;;;7.57;;
72427;SDS011;60419;48.880;18.036;2023-12-04T18:20:31;13.10;;;7.80;;
72427;SDS011;60419;48.880;18.036;2023-12-04T18:23:16;12.40;;;7.38;;
72427;SDS011;60419;48.880;18.036;2023-12-04T18:26:02;14.68;;;8.18;;
72427;SDS011;60419;48.880;18.036;2023-12-04T18:28:48;12.60;;;7.50;;
72427;SDS011;60419;48.880;18.036;2023-12-04T18:31:33;12.57;;;7.45;;
72427;SDS011;60419;48.880;18.036;2023-12-04T18:34:19;13.57;;;8.23;;
72427;SDS011;60419;48.880;18.036;2023-12-04T18:37:09;14.98;;;9.20;;
72427;SDS011;60419;48.880;18.036;2023-12-04T18:40:00;13.82;;;7.80;;
72427;SDS011;60419;48.880;18.036;2023-12-04T18:42:47;14.35;;;8.30;;
72427;SDS011;60419;48.880;18.036;2023-12-04T18:45:33;14.68;;;8.82;;
72427;SDS011;60419;48.880;18.036;2023-12-04T18:48:19;16.30;;;8.45;;
72427;SDS011;60419;48.880;18.036;2023-12-04T18:51:06;15.48;;;8.95;;
72427;SDS011;60419;48.880;18.036;2023-12-04T18:53:52;14.18;;;8.95;;
72427;SDS011;60419;48.880;18.036;2023-12-04T18:56:38;8.63;;;5.78;;
72427;SDS011;60419;48.880;18.036;2023-12-04T18:59:23;14.00;;;8.38;;
72427;SDS011;60419;48.880;18.036;2023-12-04T19:02:09;13.40;;;8.15;;
72427;SDS011;60419;48.880;18.036;2023-12-04T19:04:54;16.05;;;8.45;;
72427;SDS011;60419;48.880;18.036;2023-12-04T19:07:39;13.68;;;8.32;;
72427;SDS011;60419;48.880;18.036;2023-12-04T19:10:25;14.32;;;7.97;;
72427;SDS011;60419;48.880;18.036;2023-12-04T19:13:10;13.82;;;7.82;;
72427;SDS011;60419;48.880;18.036;2023-12-04T19:15:56;14.48;;;8.35;;
72427;SDS011;60419;48.880;18.036;2023-12-04T19:18:41;12.38;;;7.30;;
72427;SDS011;60419;48.880;18.036;2023-12-04T19:21:26;14.10;;;7.63;;
72427;SDS011;60419;48.880;18.036;2023-12-04T19:24:12;14.57;;;8.32;;
72427;SDS011;60419;48.880;18.036;2023-12-04T19:26:57;16.85;;;9.07;;
72427;SDS011;60419;48.880;18.036;2023-12-04T19:29:42;14.20;;;8.45;;
72427;SDS011;60419;48.880;18.036;2023-12-04T19:32:28;18.33;;;9.40;;
72427;SDS011;60419;48.880;18.036;2023-12-04T19:35:14;14.18;;;8.63;;
72427;SDS011;60419;48.880;18.036;2023-12-04T19:38:01;13.75;;;8.00;;
72427;SDS011;60419;48.880;18.036;2023-12-04T19:40:46;15.30;;;8.68;;
72427;SDS011;60419;48.880;18.036;2023-12-04T19:43:32;16.58;;;9.75;;
72427;SDS011;60419;48.880;18.036;2023-12-04T19:46:18;16.98;;;9.63;;
72427;SDS011;60419;48.880;18.036;2023-12-04T19:49:03;14.95;;;7.80;;
72427;SDS011;60419;48.880;18.036;2023-12-04T19:51:48;15.65;;;9.48;;
72427;SDS011;60419;48.880;18.036;2023-12-04T19:54:34;14.77;;;8.85;;
72427;SDS011;60419;48.880;18.036;2023-12-04T19:57:19;15.52;;;8.45;;
72427;SDS011;60419;48.880;18.036;2023-12-04T20:00:07;14.85;;;8.55;;
72427;SDS011;60419;48.880;18.036;2023-12-04T20:02:53;16.63;;;9.27;;
72427;SDS011;60419;48.880;18.036;2023-12-04T20:05:39;15.02;;;8.60;;
72427;SDS011;60419;48.880;18.036;2023-12-04T20:08:24;17.15;;;9.68;;
72427;SDS011;60419;48.880;18.036;2023-12-04T20:11:10;16.77;;;8.90;;
72427;SDS011;60419;48.880;18.036;2023-12-04T20:13:55;14.85;;;8.98;;
72427;SDS011;60419;48.880;18.036;2023-12-04T20:16:40;16.63;;;9.43;;
72427;SDS011;60419;48.880;18.036;2023-12-04T20:19:26;16.67;;;8.90;;
72427;SDS011;60419;48.880;18.036;2023-12-04T20:22:11;13.77;;;7.43;;
72427;SDS011;60419;48.880;18.036;2023-12-04T20:25:01;15.20;;;8.55;;
72427;SDS011;60419;48.880;18.036;2023-12-04T20:27:47;15.20;;;8.35;;
72427;SDS011;60419;48.880;18.036;2023-12-04T20:30:32;17.13;;;9.18;;
72427;SDS011;60419;48.880;18.036;2023-12-04T20:33:18;17.60;;;9.68;;
72427;SDS011;60419;48.880;18.036;2023-12-04T20:36:04;15.55;;;8.23;;
72427;SDS011;60419;48.880;18.036;2023-12-04T20:38:52;15.55;;;8.75;;
72427;SDS011;60419;48.880;18.036;2023-12-04T20:41:37;15.95;;;9.35;;
72427;SDS011;60419;48.880;18.036;2023-12-04T20:44:23;15.35;;;8.65;;
72427;SDS011;60419;48.880;18.036;2023-12-04T20:47:09;14.13;;;8.55;;
72427;SDS011;60419;48.880;18.036;2023-12-04T20:49:54;16.42;;;8.98;;
72427;SDS011;60419;48.880;18.036;2023-12-04T20:52:40;14.15;;;8.40;;
72427;SDS011;60419;48.880;18.036;2023-12-04T20:55:25;14.82;;;8.90;;
72427;SDS011;60419;48.880;18.036;2023-12-04T20:58:10;13.95;;;7.68;;